sensor_id;sensor_type;location;lat;lon;timestamp;P1;durP1;ratioP1;P2;durP2;ratioP2
52574;SDS011;38468;48.114;-1.684;2023-06-05T00:00:32;6.38;;;2.58;;
52574;SDS011;38468;48.114;-1.684;2023-06-05T00:02:33;7.20;;;2.60;;
52574;SDS011;38468;48.114;-1.684;2023-06-05T00:04:33;6.65;;;2.95;;
52574;SDS011;38468;48.114;-1.684;2023-06-05T00:06:36;5.70;;;2.25;;
52574;SDS011;38468;48.114;-1.684;2023-06-05T00:08:39;3.97;;;2.60;;
52574;SDS011;38468;48.114;-1.684;2023-06-05T00:10:40;12.45;;;3.20;;
52574;SDS011;38468;48.114;-1.684;2023-06-05T00:12:41;4.88;;;2.13;;
52574;SDS011;38468;48.114;-1.684;2023-06-05T00:14:42;5.15;;;2.72;;
52574;SDS011;38468;48.114;-1.684;2023-06-05T00:16:43;8.20;;;3.40;;
52574;SDS011;38468;48.114;-1.684;2023-06-05T00:18:44;9.73;;;3.47;;
52574;SDS011;38468;48.114;-1.684;2023-06-05T00:20:45;5.28;;;2.78;;
52574;SDS011;38468;48.114;-1.684;2023-06-05T00:22:46;7.95;;;2.58;;
52574;SDS011;38468;48.114;-1.684;2023-06-05T00:24:47;12.20;;;2.70;;
52574;SDS011;38468;48.114;-1.684;2023-06-05T00:26:47;9.27;;;3.00;;
52574;SDS011;38468;48.114;-1.684;2023-06-05T00:28:48;13.52;;;4.10;;
52574;SDS011;38468;48.114;-1.684;2023-06-05T00:30:49;5.68;;;3.25;;
52574;SDS011;38468;48.114;-1.684;2023-06-05T00:32:49;7.90;;;2.88;;
52574;SDS011;38468;48.114;-1.684;2023-06-05T00:34:50;7.60;;;2.85;;
52574;SDS011;38468;48.114;-1.684;2023-06-05T00:36:51;6.22;;;2.95;;
52574;SDS011;38468;48.114;-1.684;2023-06-05T00:38:52;6.47;;;2.70;;
52574;SDS011;38468;48.114;-1.684;2023-06-05T00:40:53;8.30;;;2.72;;
52574;SDS011;38468;48.114;-1.684;2023-06-05T00:42:53;6.03;;;2.65;;
52574;SDS011;38468;48.114;-1.684;2023-06-05T00:44:54;7.63;;;3.25;;
52574;SDS011;38468;48.114;-1.684;2023-06-05T00:46:55;5.30;;;2.53;;
52574;SDS011;38468;48.114;-1.684;2023-06-05T00:48:55;6.28;;;2.78;;
52574;SDS011;38468;48.114;-1.684;2023-06-05T00:50:56;4.93;;;3.17;;
52574;SDS011;38468;48.114;-1.684;2023-06-05T00:52:58;4.60;;;2.85;;
52574;SDS011;38468;48.114;-1.684;2023-06-05T00:55:01;8.18;;;2.97;;
52574;SDS011;38468;48.114;-1.684;2023-06-05T00:57:02;6.63;;;3.33;;
52574;SDS011;38468;48.114;-1.684;2023-06-05T00:59:03;5.93;;;3.43;;
52574;SDS011;38468;48.114;-1.684;2023-06-05T01:01:04;7.22;;;2.92;;
52574;SDS011;38468;48.114;-1.684;2023-06-05T01:03:06;15.60;;;3.40;;
52574;SDS011;38468;48.114;-1.684;2023-06-05T01:05:08;7.43;;;3.20;;
52574;SDS011;38468;48.114;-1.684;2023-06-05T01:07:10;3.38;;;2.58;;
52574;SDS011;38468;48.114;-1.684;2023-06-05T01:09:11;6.80;;;2.80;;
52574;SDS011;38468;48.114;-1.684;2023-06-05T01:13:23;8.73;;;3.15;;
52574;SDS011;38468;48.114;-1.684;2023-06-05T01:15:28;10.15;;;3.17;;
52574;SDS011;38468;48.114;-1.684;2023-06-05T01:17:30;9.40;;;3.60;;
52574;SDS011;38468;48.114;-1.684;2023-06-05T01:19:32;4.88;;;3.00;;
52574;SDS011;38468;48.114;-1.684;2023-06-05T01:21:33;6.50;;;3.55;;
52574;SDS011;38468;48.114;-1.684;2023-06-05T01:23:35;6.68;;;3.00;;
52574;SDS011;38468;48.114;-1.684;2023-06-05T01:25:36;6.25;;;2.97;;
52574;SDS011;38468;48.114;-1.684;2023-06-05T01:28:13;9.18;;;3.25;;
52574;SDS011;38468;48.114;-1.684;2023-06-05T01:32:53;9.93;;;2.70;;
52574;SDS011;38468;48.114;-1.684;2023-06-05T01:34:55;11.70;;;3.45;;
52574;SDS011;38468;48.114;-1.684;2023-06-05T01:36:58;9.82;;;3.25;;
52574;SDS011;38468;48.114;-1.684;2023-06-05T01:39:00;8.00;;;3.47;;
52574;SDS011;38468;48.114;-1.684;2023-06-05T01:41:01;7.50;;;3.28;;
52574;SDS011;38468;48.114;-1.684;2023-06-05T01:43:04;7.63;;;2.83;;
52574;SDS011;38468;48.114;-1.684;2023-06-05T01:45:06;5.90;;;3.17;;
52574;SDS011;38468;48.114;-1.684;2023-06-05T01:47:08;9.95;;;3.47;;
52574;SDS011;38468;48.114;-1.684;2023-06-05T01:49:10;4.83;;;2.60;;
52574;SDS011;38468;48.114;-1.684;2023-06-05T01:51:11;7.78;;;3.70;;
52574;SDS011;38468;48.114;-1.684;2023-06-05T01:53:11;9.73;;;3.85;;
52574;SDS011;38468;48.114;-1.684;2023-06-05T01:55:15;9.82;;;3.78;;
52574;SDS011;38468;48.114;-1.684;2023-06-05T01:57:18;5.43;;;2.83;;
52574;SDS011;38468;48.114;-1.684;2023-06-05T01:59:19;10.95;;;4.18;;
52574;SDS011;38468;48.114;-1.684;2023-06-05T02:01:20;10.02;;;3.53;;
52574;SDS011;38468;48.114;-1.684;2023-06-05T02:03:23;13.50;;;3.88;;
52574;SDS011;38468;48.114;-1.684;2023-06-05T02:05:24;8.70;;;3.20;;
52574;SDS011;38468;48.114;-1.684;2023-06-05T02:07:29;9.70;;;3.33;;
52574;SDS011;38468;48.114;-1.684;2023-06-05T02:09:33;10.20;;;3.80;;
52574;SDS011;38468;48.114;-1.684;2023-06-05T02:11:33;10.40;;;3.50;;
52574;SDS011;38468;48.114;-1.684;2023-06-05T02:13:37;8.45;;;3.63;;
52574;SDS011;38468;48.114;-1.684;2023-06-05T02:15:39;15.02;;;3.95;;
52574;SDS011;38468;48.114;-1.684;2023-06-05T02:17:44;10.80;;;3.85;;
52574;SDS011;38468;48.114;-1.684;2023-06-05T02:19:50;11.32;;;4.43;;
52574;SDS011;38468;48.114;-1.684;2023-06-05T02:21:51;9.25;;;3.03;;
52574;SDS011;38468;48.114;-1.684;2023-06-05T02:23:53;8.80;;;3.45;;
52574;SDS011;38468;48.114;-1.684;2023-06-05T02:25:54;11.57;;;3.97;;
52574;SDS011;38468;48.114;-1.684;2023-06-05T02:27:55;8.27;;;3.63;;
52574;SDS011;38468;48.114;-1.684;2023-06-05T02:29:56;11.40;;;3.90;;
52574;SDS011;38468;48.114;-1.684;2023-06-05T02:31:56;12.43;;;4.13;;
52574;SDS011;38468;48.114;-1.684;2023-06-05T02:33:57;10.55;;;3.40;;
52574;SDS011;38468;48.114;-1.684;2023-06-05T02:35:58;8.65;;;3.05;;
52574;SDS011;38468;48.114;-1.684;2023-06-05T02:37:59;7.85;;;3.70;;
52574;SDS011;38468;48.114;-1.684;2023-06-05T02:39:59;10.18;;;3.58;;
52574;SDS011;38468;48.114;-1.684;2023-06-05T02:42:00;6.72;;;2.90;;
52574;SDS011;38468;48.114;-1.684;2023-06-05T02:44:00;9.80;;;3.90;;
52574;SDS011;38468;48.114;-1.684;2023-06-05T02:46:01;9.48;;;4.30;;
52574;SDS011;38468;48.114;-1.684;2023-06-05T02:48:02;10.18;;;3.83;;
52574;SDS011;38468;48.114;-1.684;2023-06-05T02:50:03;9.38;;;3.40;;
52574;SDS011;38468;48.114;-1.684;2023-06-05T02:52:04;12.03;;;4.60;;
52574;SDS011;38468;48.114;-1.684;2023-06-05T02:54:05;11.57;;;4.15;;
52574;SDS011;38468;48.114;-1.684;2023-06-05T02:56:06;12.15;;;4.55;;
52574;SDS011;38468;48.114;-1.684;2023-06-05T02:58:06;9.82;;;3.42;;
52574;SDS011;38468;48.114;-1.684;2023-06-05T03:00:10;12.38;;;4.55;;
52574;SDS011;38468;48.114;-1.684;2023-06-05T03:02:16;8.75;;;3.70;;
52574;SDS011;38468;48.114;-1.684;2023-06-05T03:04:17;6.63;;;3.30;;
52574;SDS011;38468;48.114;-1.684;2023-06-05T03:06:24;11.05;;;3.50;;
52574;SDS011;38468;48.114;-1.684;2023-06-05T03:08:28;6.95;;;3.13;;
52574;SDS011;38468;48.114;-1.684;2023-06-05T03:10:28;10.82;;;3.75;;
52574;SDS011;38468;48.114;-1.684;2023-06-05T03:12:29;8.35;;;3.95;;
52574;SDS011;38468;48.114;-1.684;2023-06-05T03:14:30;8.48;;;4.20;;
52574;SDS011;38468;48.114;-1.684;2023-06-05T03:16:31;7.43;;;3.60;;
52574;SDS011;38468;48.114;-1.684;2023-06-05T03:18:37;13.85;;;3.92;;
52574;SDS011;38468;48.114;-1.684;2023-06-05T03:20:38;8.77;;;4.35;;
52574;SDS011;38468;48.114;-1.684;2023-06-05T03:22:39;9.13;;;3.42;;
52574;SDS011;38468;48.114;-1.684;2023-06-05T03:24:39;11.23;;;4.25;;
52574;SDS011;38468;48.114;-1.684;2023-06-05T03:26:40;10.80;;;4.15;;
52574;SDS011;38468;48.114;-1.684;2023-06-05T03:28:41;8.38;;;4.03;;
52574;SDS011;38468;48.114;-1.684;2023-06-05T03:30:42;13.10;;;4.10;;
52574;SDS011;38468;48.114;-1.684;2023-06-05T03:32:44;9.23;;;4.10;;
52574;SDS011;38468;48.114;-1.684;2023-06-05T03:34:45;8.93;;;3.63;;
52574;SDS011;38468;48.114;-1.684;2023-06-05T03:36:48;7.75;;;3.75;;
52574;SDS011;38468;48.114;-1.684;2023-06-05T03:38:49;12.45;;;4.55;;
52574;SDS011;38468;48.114;-1.684;2023-06-05T03:40:50;9.55;;;4.25;;
52574;SDS011;38468;48.114;-1.684;2023-06-05T03:42:50;8.65;;;4.55;;
52574;SDS011;38468;48.114;-1.684;2023-06-05T03:44:51;17.95;;;4.43;;
52574;SDS011;38468;48.114;-1.684;2023-06-05T03:46:52;11.10;;;4.05;;
52574;SDS011;38468;48.114;-1.684;2023-06-05T03:48:52;10.20;;;4.20;;
52574;SDS011;38468;48.114;-1.684;2023-06-05T03:50:59;10.70;;;4.00;;
52574;SDS011;38468;48.114;-1.684;2023-06-05T03:53:00;11.40;;;4.23;;
52574;SDS011;38468;48.114;-1.684;2023-06-05T03:55:05;10.82;;;3.97;;
52574;SDS011;38468;48.114;-1.684;2023-06-05T03:57:07;11.23;;;5.03;;
52574;SDS011;38468;48.114;-1.684;2023-06-05T03:59:12;8.05;;;3.88;;
52574;SDS011;38468;48.114;-1.684;2023-06-05T04:01:19;11.73;;;4.22;;
52574;SDS011;38468;48.114;-1.684;2023-06-05T04:03:20;6.20;;;4.00;;
52574;SDS011;38468;48.114;-1.684;2023-06-05T04:05:20;10.48;;;3.97;;
52574;SDS011;38468;48.114;-1.684;2023-06-05T04:07:21;14.00;;;4.50;;
52574;SDS011;38468;48.114;-1.684;2023-06-05T04:09:22;11.98;;;4.10;;
52574;SDS011;38468;48.114;-1.684;2023-06-05T04:11:22;11.15;;;3.95;;
52574;SDS011;38468;48.114;-1.684;2023-06-05T04:13:26;8.45;;;4.10;;
52574;SDS011;38468;48.114;-1.684;2023-06-05T04:15:27;8.45;;;4.13;;
52574;SDS011;38468;48.114;-1.684;2023-06-05T04:17:28;9.75;;;4.07;;
52574;SDS011;38468;48.114;-1.684;2023-06-05T04:19:28;12.20;;;4.28;;
52574;SDS011;38468;48.114;-1.684;2023-06-05T04:21:29;10.95;;;5.00;;
52574;SDS011;38468;48.114;-1.684;2023-06-05T04:23:30;10.75;;;5.10;;
52574;SDS011;38468;48.114;-1.684;2023-06-05T04:25:30;9.10;;;4.13;;
52574;SDS011;38468;48.114;-1.684;2023-06-05T04:27:31;10.32;;;4.03;;
52574;SDS011;38468;48.114;-1.684;2023-06-05T04:29:32;14.65;;;4.65;;
52574;SDS011;38468;48.114;-1.684;2023-06-05T04:31:33;13.50;;;4.40;;
52574;SDS011;38468;48.114;-1.684;2023-06-05T04:33:34;10.48;;;4.28;;
52574;SDS011;38468;48.114;-1.684;2023-06-05T04:35:35;13.55;;;5.13;;
52574;SDS011;38468;48.114;-1.684;2023-06-05T04:37:36;9.23;;;4.80;;
52574;SDS011;38468;48.114;-1.684;2023-06-05T04:39:37;8.93;;;4.15;;
52574;SDS011;38468;48.114;-1.684;2023-06-05T04:41:38;14.68;;;4.82;;
52574;SDS011;38468;48.114;-1.684;2023-06-05T04:43:44;10.13;;;4.38;;
52574;SDS011;38468;48.114;-1.684;2023-06-05T04:45:45;9.45;;;4.53;;
52574;SDS011;38468;48.114;-1.684;2023-06-05T04:47:46;8.13;;;4.72;;
52574;SDS011;38468;48.114;-1.684;2023-06-05T04:49:46;12.60;;;5.88;;
52574;SDS011;38468;48.114;-1.684;2023-06-05T04:51:49;8.20;;;4.43;;
52574;SDS011;38468;48.114;-1.684;2023-06-05T04:53:49;12.93;;;4.40;;
52574;SDS011;38468;48.114;-1.684;2023-06-05T04:55:52;8.05;;;4.38;;
52574;SDS011;38468;48.114;-1.684;2023-06-05T04:57:53;8.98;;;4.95;;
52574;SDS011;38468;48.114;-1.684;2023-06-05T04:59:54;15.15;;;4.80;;
52574;SDS011;38468;48.114;-1.684;2023-06-05T05:01:55;10.50;;;5.00;;
52574;SDS011;38468;48.114;-1.684;2023-06-05T05:03:56;16.08;;;5.05;;
52574;SDS011;38468;48.114;-1.684;2023-06-05T05:05:56;11.95;;;4.78;;
52574;SDS011;38468;48.114;-1.684;2023-06-05T05:07:57;9.48;;;4.05;;
52574;SDS011;38468;48.114;-1.684;2023-06-05T05:09:58;7.10;;;4.35;;
52574;SDS011;38468;48.114;-1.684;2023-06-05T05:11:58;14.02;;;5.30;;
52574;SDS011;38468;48.114;-1.684;2023-06-05T05:13:59;9.95;;;4.88;;
52574;SDS011;38468;48.114;-1.684;2023-06-05T05:16:00;10.43;;;4.60;;
52574;SDS011;38468;48.114;-1.684;2023-06-05T05:18:01;12.68;;;4.63;;
52574;SDS011;38468;48.114;-1.684;2023-06-05T05:20:02;12.57;;;5.43;;
52574;SDS011;38468;48.114;-1.684;2023-06-05T05:22:04;13.95;;;4.30;;
52574;SDS011;38468;48.114;-1.684;2023-06-05T05:24:05;11.77;;;4.75;;
52574;SDS011;38468;48.114;-1.684;2023-06-05T05:26:06;8.75;;;4.10;;
52574;SDS011;38468;48.114;-1.684;2023-06-05T05:28:07;9.82;;;4.47;;
52574;SDS011;38468;48.114;-1.684;2023-06-05T05:30:09;8.07;;;4.47;;
52574;SDS011;38468;48.114;-1.684;2023-06-05T05:32:10;11.82;;;5.70;;
52574;SDS011;38468;48.114;-1.684;2023-06-05T05:34:11;7.60;;;5.25;;
52574;SDS011;38468;48.114;-1.684;2023-06-05T05:36:11;10.80;;;4.68;;
52574;SDS011;38468;48.114;-1.684;2023-06-05T05:38:14;9.00;;;4.55;;
52574;SDS011;38468;48.114;-1.684;2023-06-05T05:40:14;8.98;;;4.88;;
52574;SDS011;38468;48.114;-1.684;2023-06-05T05:42:15;14.63;;;5.07;;
52574;SDS011;38468;48.114;-1.684;2023-06-05T05:44:17;7.80;;;3.83;;
52574;SDS011;38468;48.114;-1.684;2023-06-05T05:46:19;9.85;;;4.75;;
52574;SDS011;38468;48.114;-1.684;2023-06-05T05:48:19;8.75;;;4.65;;
52574;SDS011;38468;48.114;-1.684;2023-06-05T05:50:20;11.48;;;3.83;;
52574;SDS011;38468;48.114;-1.684;2023-06-05T05:52:21;9.50;;;4.50;;
52574;SDS011;38468;48.114;-1.684;2023-06-05T05:54:22;11.97;;;4.83;;
52574;SDS011;38468;48.114;-1.684;2023-06-05T05:56:27;10.13;;;4.93;;
52574;SDS011;38468;48.114;-1.684;2023-06-05T05:58:27;8.93;;;4.32;;
52574;SDS011;38468;48.114;-1.684;2023-06-05T06:00:28;12.68;;;4.63;;
52574;SDS011;38468;48.114;-1.684;2023-06-05T06:02:28;12.52;;;4.53;;
52574;SDS011;38468;48.114;-1.684;2023-06-05T06:04:29;12.70;;;4.78;;
52574;SDS011;38468;48.114;-1.684;2023-06-05T06:06:30;7.38;;;4.15;;
52574;SDS011;38468;48.114;-1.684;2023-06-05T06:08:31;9.35;;;4.60;;
52574;SDS011;38468;48.114;-1.684;2023-06-05T06:10:33;14.65;;;4.68;;
52574;SDS011;38468;48.114;-1.684;2023-06-05T06:12:34;10.20;;;5.15;;
52574;SDS011;38468;48.114;-1.684;2023-06-05T06:14:34;11.40;;;4.55;;
52574;SDS011;38468;48.114;-1.684;2023-06-05T06:16:38;14.18;;;5.00;;
52574;SDS011;38468;48.114;-1.684;2023-06-05T06:18:40;15.13;;;5.70;;
52574;SDS011;38468;48.114;-1.684;2023-06-05T06:20:41;14.20;;;4.50;;
52574;SDS011;38468;48.114;-1.684;2023-06-05T06:22:42;12.82;;;4.88;;
52574;SDS011;38468;48.114;-1.684;2023-06-05T06:24:43;11.93;;;6.00;;
52574;SDS011;38468;48.114;-1.684;2023-06-05T06:26:43;10.40;;;4.18;;
52574;SDS011;38468;48.114;-1.684;2023-06-05T06:28:44;7.30;;;4.03;;
52574;SDS011;38468;48.114;-1.684;2023-06-05T06:30:45;10.05;;;4.75;;
52574;SDS011;38468;48.114;-1.684;2023-06-05T06:32:45;15.63;;;4.38;;
52574;SDS011;38468;48.114;-1.684;2023-06-05T06:34:46;7.13;;;4.50;;
52574;SDS011;38468;48.114;-1.684;2023-06-05T06:36:47;10.88;;;3.95;;
52574;SDS011;38468;48.114;-1.684;2023-06-05T06:38:47;9.43;;;4.53;;
52574;SDS011;38468;48.114;-1.684;2023-06-05T06:40:48;12.02;;;4.25;;
52574;SDS011;38468;48.114;-1.684;2023-06-05T06:42:49;8.13;;;3.97;;
52574;SDS011;38468;48.114;-1.684;2023-06-05T06:44:50;12.68;;;4.63;;
52574;SDS011;38468;48.114;-1.684;2023-06-05T06:46:55;10.38;;;3.55;;
52574;SDS011;38468;48.114;-1.684;2023-06-05T06:48:56;12.52;;;4.05;;
52574;SDS011;38468;48.114;-1.684;2023-06-05T06:50:57;10.45;;;3.50;;
52574;SDS011;38468;48.114;-1.684;2023-06-05T06:52:58;7.70;;;4.13;;
52574;SDS011;38468;48.114;-1.684;2023-06-05T06:54:59;11.32;;;4.00;;
52574;SDS011;38468;48.114;-1.684;2023-06-05T06:56:59;7.18;;;3.22;;
52574;SDS011;38468;48.114;-1.684;2023-06-05T06:59:00;5.88;;;3.20;;
52574;SDS011;38468;48.114;-1.684;2023-06-05T07:01:02;13.27;;;3.83;;
52574;SDS011;38468;48.114;-1.684;2023-06-05T07:03:03;7.07;;;3.88;;
52574;SDS011;38468;48.114;-1.684;2023-06-05T07:05:04;13.23;;;3.90;;
52574;SDS011;38468;48.114;-1.684;2023-06-05T07:07:07;8.75;;;3.85;;
52574;SDS011;38468;48.114;-1.684;2023-06-05T07:09:08;14.38;;;4.00;;
52574;SDS011;38468;48.114;-1.684;2023-06-05T07:11:09;10.57;;;3.67;;
52574;SDS011;38468;48.114;-1.684;2023-06-05T07:13:10;5.60;;;3.22;;
52574;SDS011;38468;48.114;-1.684;2023-06-05T07:15:12;6.35;;;3.20;;
52574;SDS011;38468;48.114;-1.684;2023-06-05T07:17:12;7.93;;;4.10;;
52574;SDS011;38468;48.114;-1.684;2023-06-05T07:19:13;10.88;;;3.85;;
52574;SDS011;38468;48.114;-1.684;2023-06-05T07:21:15;10.63;;;4.10;;
52574;SDS011;38468;48.114;-1.684;2023-06-05T07:23:16;7.75;;;3.70;;
52574;SDS011;38468;48.114;-1.684;2023-06-05T07:25:18;11.13;;;3.45;;
52574;SDS011;38468;48.114;-1.684;2023-06-05T07:27:21;8.45;;;4.03;;
52574;SDS011;38468;48.114;-1.684;2023-06-05T07:29:22;10.73;;;3.78;;
52574;SDS011;38468;48.114;-1.684;2023-06-05T07:33:24;13.15;;;3.20;;
52574;SDS011;38468;48.114;-1.684;2023-06-05T07:35:25;7.23;;;3.40;;
52574;SDS011;38468;48.114;-1.684;2023-06-05T07:37:26;11.70;;;3.83;;
52574;SDS011;38468;48.114;-1.684;2023-06-05T07:39:27;6.40;;;3.03;;
52574;SDS011;38468;48.114;-1.684;2023-06-05T07:41:28;7.72;;;3.38;;
52574;SDS011;38468;48.114;-1.684;2023-06-05T07:43:28;8.57;;;3.23;;
52574;SDS011;38468;48.114;-1.684;2023-06-05T07:45:29;8.33;;;3.70;;
52574;SDS011;38468;48.114;-1.684;2023-06-05T07:47:30;9.20;;;4.20;;
52574;SDS011;38468;48.114;-1.684;2023-06-05T07:49:30;18.63;;;5.43;;
52574;SDS011;38468;48.114;-1.684;2023-06-05T07:51:35;7.78;;;3.60;;
52574;SDS011;38468;48.114;-1.684;2023-06-05T07:53:37;12.05;;;4.07;;
52574;SDS011;38468;48.114;-1.684;2023-06-05T07:55:37;11.23;;;5.03;;
52574;SDS011;38468;48.114;-1.684;2023-06-05T07:57:38;6.40;;;2.93;;
52574;SDS011;38468;48.114;-1.684;2023-06-05T07:59:38;10.03;;;2.93;;
52574;SDS011;38468;48.114;-1.684;2023-06-05T08:01:39;6.73;;;3.63;;
52574;SDS011;38468;48.114;-1.684;2023-06-05T08:03:41;7.45;;;3.28;;
52574;SDS011;38468;48.114;-1.684;2023-06-05T08:05:43;10.85;;;3.85;;
52574;SDS011;38468;48.114;-1.684;2023-06-05T08:07:44;5.97;;;2.83;;
52574;SDS011;38468;48.114;-1.684;2023-06-05T08:09:45;8.57;;;3.65;;
52574;SDS011;38468;48.114;-1.684;2023-06-05T08:11:46;8.43;;;3.10;;
52574;SDS011;38468;48.114;-1.684;2023-06-05T08:13:47;11.63;;;3.50;;
52574;SDS011;38468;48.114;-1.684;2023-06-05T08:15:48;10.07;;;3.33;;
52574;SDS011;38468;48.114;-1.684;2023-06-05T08:17:48;21.10;;;3.60;;
52574;SDS011;38468;48.114;-1.684;2023-06-05T08:19:49;14.70;;;3.92;;
52574;SDS011;38468;48.114;-1.684;2023-06-05T08:21:51;9.37;;;3.80;;
52574;SDS011;38468;48.114;-1.684;2023-06-05T08:23:53;9.57;;;3.38;;
52574;SDS011;38468;48.114;-1.684;2023-06-05T08:25:54;5.70;;;2.77;;
52574;SDS011;38468;48.114;-1.684;2023-06-05T08:27:55;5.23;;;3.10;;
52574;SDS011;38468;48.114;-1.684;2023-06-05T08:29:55;8.53;;;3.47;;
52574;SDS011;38468;48.114;-1.684;2023-06-05T08:31:56;8.33;;;3.30;;
52574;SDS011;38468;48.114;-1.684;2023-06-05T08:33:57;11.47;;;3.10;;
52574;SDS011;38468;48.114;-1.684;2023-06-05T08:35:57;8.13;;;3.80;;
52574;SDS011;38468;48.114;-1.684;2023-06-05T08:37:58;5.67;;;3.37;;
52574;SDS011;38468;48.114;-1.684;2023-06-05T08:39:59;5.55;;;3.40;;
52574;SDS011;38468;48.114;-1.684;2023-06-05T08:42:06;6.60;;;3.60;;
52574;SDS011;38468;48.114;-1.684;2023-06-05T08:44:10;7.25;;;3.47;;
52574;SDS011;38468;48.114;-1.684;2023-06-05T08:46:12;5.68;;;3.45;;
52574;SDS011;38468;48.114;-1.684;2023-06-05T08:48:13;7.20;;;3.50;;
52574;SDS011;38468;48.114;-1.684;2023-06-05T08:50:17;6.65;;;3.25;;
52574;SDS011;38468;48.114;-1.684;2023-06-05T08:52:17;8.13;;;4.23;;
52574;SDS011;38468;48.114;-1.684;2023-06-05T08:54:22;6.10;;;3.10;;
52574;SDS011;38468;48.114;-1.684;2023-06-05T08:56:23;8.00;;;3.77;;
52574;SDS011;38468;48.114;-1.684;2023-06-05T08:58:26;11.32;;;3.70;;
52574;SDS011;38468;48.114;-1.684;2023-06-05T09:00:26;7.57;;;3.13;;
52574;SDS011;38468;48.114;-1.684;2023-06-05T09:02:27;5.87;;;3.30;;
52574;SDS011;38468;48.114;-1.684;2023-06-05T09:04:28;7.77;;;4.03;;
52574;SDS011;38468;48.114;-1.684;2023-06-05T09:06:30;9.32;;;3.55;;
52574;SDS011;38468;48.114;-1.684;2023-06-05T09:08:33;7.45;;;3.67;;
52574;SDS011;38468;48.114;-1.684;2023-06-05T09:10:34;10.75;;;3.40;;
52574;SDS011;38468;48.114;-1.684;2023-06-05T09:12:54;8.15;;;3.25;;
52574;SDS011;38468;48.114;-1.684;2023-06-05T09:14:56;7.97;;;2.97;;
52574;SDS011;38468;48.114;-1.684;2023-06-05T09:16:57;8.63;;;2.90;;
52574;SDS011;38468;48.114;-1.684;2023-06-05T09:18:58;8.35;;;3.20;;
52574;SDS011;38468;48.114;-1.684;2023-06-05T09:20:59;8.73;;;3.30;;
52574;SDS011;38468;48.114;-1.684;2023-06-05T09:25:24;8.52;;;3.38;;
52574;SDS011;38468;48.114;-1.684;2023-06-05T09:27:25;13.25;;;4.65;;
52574;SDS011;38468;48.114;-1.684;2023-06-05T09:31:39;9.40;;;3.63;;
52574;SDS011;38468;48.114;-1.684;2023-06-05T09:33:44;13.50;;;3.45;;
52574;SDS011;38468;48.114;-1.684;2023-06-05T09:36:01;13.60;;;3.88;;
52574;SDS011;38468;48.114;-1.684;2023-06-05T09:38:16;15.80;;;3.85;;
52574;SDS011;38468;48.114;-1.684;2023-06-05T09:40:36;10.32;;;4.45;;
52574;SDS011;38468;48.114;-1.684;2023-06-05T09:42:37;13.57;;;4.28;;
52574;SDS011;38468;48.114;-1.684;2023-06-05T09:44:38;10.97;;;3.23;;
52574;SDS011;38468;48.114;-1.684;2023-06-05T09:46:49;13.07;;;5.47;;
52574;SDS011;38468;48.114;-1.684;2023-06-05T09:48:57;6.55;;;3.90;;
52574;SDS011;38468;48.114;-1.684;2023-06-05T09:51:07;6.63;;;3.60;;
52574;SDS011;38468;48.114;-1.684;2023-06-05T09:53:10;8.40;;;3.80;;
52574;SDS011;38468;48.114;-1.684;2023-06-05T09:55:16;8.68;;;4.13;;
52574;SDS011;38468;48.114;-1.684;2023-06-05T09:57:17;6.13;;;3.43;;
52574;SDS011;38468;48.114;-1.684;2023-06-05T09:59:21;6.10;;;3.42;;
52574;SDS011;38468;48.114;-1.684;2023-06-05T10:01:22;7.72;;;3.17;;
52574;SDS011;38468;48.114;-1.684;2023-06-05T10:03:24;7.18;;;3.22;;
52574;SDS011;38468;48.114;-1.684;2023-06-05T10:05:27;9.65;;;3.58;;
52574;SDS011;38468;48.114;-1.684;2023-06-05T10:07:31;9.95;;;3.35;;
52574;SDS011;38468;48.114;-1.684;2023-06-05T10:09:33;5.05;;;3.00;;
52574;SDS011;38468;48.114;-1.684;2023-06-05T10:11:33;6.53;;;3.03;;
52574;SDS011;38468;48.114;-1.684;2023-06-05T10:13:35;7.55;;;2.83;;
52574;SDS011;38468;48.114;-1.684;2023-06-05T10:15:35;8.63;;;3.47;;
52574;SDS011;38468;48.114;-1.684;2023-06-05T10:17:38;8.95;;;3.33;;
52574;SDS011;38468;48.114;-1.684;2023-06-05T10:19:41;6.35;;;2.70;;
52574;SDS011;38468;48.114;-1.684;2023-06-05T10:21:43;8.40;;;3.08;;
52574;SDS011;38468;48.114;-1.684;2023-06-05T10:23:49;6.18;;;3.28;;
52574;SDS011;38468;48.114;-1.684;2023-06-05T10:25:54;8.38;;;3.28;;
52574;SDS011;38468;48.114;-1.684;2023-06-05T10:33:00;13.60;;;3.33;;
52574;SDS011;38468;48.114;-1.684;2023-06-05T10:35:34;10.80;;;3.60;;
52574;SDS011;38468;48.114;-1.684;2023-06-05T10:39:55;4.20;;;3.03;;
52574;SDS011;38468;48.114;-1.684;2023-06-05T10:41:56;16.40;;;3.57;;
52574;SDS011;38468;48.114;-1.684;2023-06-05T10:43:59;14.07;;;3.55;;
52574;SDS011;38468;48.114;-1.684;2023-06-05T10:46:01;7.97;;;2.73;;
52574;SDS011;38468;48.114;-1.684;2023-06-05T10:48:49;5.05;;;3.10;;
52574;SDS011;38468;48.114;-1.684;2023-06-05T10:51:31;7.55;;;2.88;;
52574;SDS011;38468;48.114;-1.684;2023-06-05T10:53:41;8.18;;;2.83;;
52574;SDS011;38468;48.114;-1.684;2023-06-05T10:55:42;8.23;;;3.42;;
52574;SDS011;38468;48.114;-1.684;2023-06-05T11:00:08;6.57;;;2.92;;
52574;SDS011;38468;48.114;-1.684;2023-06-05T11:04:15;4.30;;;2.95;;
52574;SDS011;38468;48.114;-1.684;2023-06-05T11:06:17;4.18;;;2.80;;
52574;SDS011;38468;48.114;-1.684;2023-06-05T11:08:17;8.73;;;3.87;;
52574;SDS011;38468;48.114;-1.684;2023-06-05T11:10:20;7.15;;;3.58;;
52574;SDS011;38468;48.114;-1.684;2023-06-05T11:12:21;5.93;;;2.95;;
52574;SDS011;38468;48.114;-1.684;2023-06-05T11:14:21;5.00;;;3.10;;
52574;SDS011;38468;48.114;-1.684;2023-06-05T11:16:29;5.33;;;3.40;;
52574;SDS011;38468;48.114;-1.684;2023-06-05T11:18:32;7.78;;;2.88;;
52574;SDS011;38468;48.114;-1.684;2023-06-05T11:22:33;6.53;;;3.03;;
52574;SDS011;38468;48.114;-1.684;2023-06-05T11:29:42;7.15;;;3.15;;
52574;SDS011;38468;48.114;-1.684;2023-06-05T11:31:43;5.82;;;3.10;;
52574;SDS011;38468;48.114;-1.684;2023-06-05T11:33:45;16.25;;;3.22;;
52574;SDS011;38468;48.114;-1.684;2023-06-05T11:35:46;6.40;;;3.47;;
52574;SDS011;38468;48.114;-1.684;2023-06-05T11:37:48;7.18;;;3.30;;
52574;SDS011;38468;48.114;-1.684;2023-06-05T11:39:49;8.97;;;3.67;;
52574;SDS011;38468;48.114;-1.684;2023-06-05T11:41:49;5.87;;;3.57;;
52574;SDS011;38468;48.114;-1.684;2023-06-05T11:43:51;7.45;;;3.22;;
52574;SDS011;38468;48.114;-1.684;2023-06-05T11:45:52;5.97;;;3.10;;
52574;SDS011;38468;48.114;-1.684;2023-06-05T11:48:03;5.32;;;3.63;;
52574;SDS011;38468;48.114;-1.684;2023-06-05T11:50:14;8.25;;;3.38;;
52574;SDS011;38468;48.114;-1.684;2023-06-05T11:52:18;9.02;;;3.22;;
52574;SDS011;38468;48.114;-1.684;2023-06-05T11:54:31;6.22;;;3.22;;
52574;SDS011;38468;48.114;-1.684;2023-06-05T11:56:34;3.00;;;2.65;;
52574;SDS011;38468;48.114;-1.684;2023-06-05T11:58:37;5.03;;;3.25;;
52574;SDS011;38468;48.114;-1.684;2023-06-05T12:00:39;5.18;;;2.50;;
52574;SDS011;38468;48.114;-1.684;2023-06-05T12:02:43;7.35;;;3.83;;
52574;SDS011;38468;48.114;-1.684;2023-06-05T12:04:45;3.03;;;2.72;;
52574;SDS011;38468;48.114;-1.684;2023-06-05T12:06:46;6.17;;;3.33;;
52574;SDS011;38468;48.114;-1.684;2023-06-05T12:08:47;5.10;;;3.20;;
52574;SDS011;38468;48.114;-1.684;2023-06-05T12:10:48;3.90;;;3.10;;
52574;SDS011;38468;48.114;-1.684;2023-06-05T12:12:52;10.90;;;5.30;;
52574;SDS011;38468;48.114;-1.684;2023-06-05T12:14:53;7.63;;;4.93;;
52574;SDS011;38468;48.114;-1.684;2023-06-05T12:16:57;4.72;;;3.20;;
52574;SDS011;38468;48.114;-1.684;2023-06-05T12:18:58;4.23;;;3.53;;
52574;SDS011;38468;48.114;-1.684;2023-06-05T12:20:59;8.35;;;3.08;;
52574;SDS011;38468;48.114;-1.684;2023-06-05T12:23:00;5.43;;;2.90;;
52574;SDS011;38468;48.114;-1.684;2023-06-05T12:25:14;3.67;;;2.87;;
52574;SDS011;38468;48.114;-1.684;2023-06-05T12:27:16;4.25;;;3.28;;
52574;SDS011;38468;48.114;-1.684;2023-06-05T12:29:17;5.33;;;3.47;;
52574;SDS011;38468;48.114;-1.684;2023-06-05T12:31:41;5.57;;;3.15;;
52574;SDS011;38468;48.114;-1.684;2023-06-05T12:33:48;7.25;;;3.20;;